createdAt,value
2023-04-21T00:02:01.053Z,12.48
2023-04-21T00:04:29.709Z,9.68
2023-04-21T00:07:01.599Z,12.18
2023-04-21T00:09:30.084Z,15.32
2023-04-21T00:11:58.321Z,13.43
2023-04-21T00:14:26.749Z,15.88
2023-04-21T00:16:54.846Z,15.25
2023-04-21T00:19:24.341Z,13.52
2023-04-21T00:21:52.546Z,14.77
2023-04-21T00:24:20.904Z,13.40
2023-04-21T00:26:49.286Z,13.13
2023-04-21T00:29:17.721Z,13.63
2023-04-21T00:31:46.133Z,11.90
2023-04-21T00:34:14.226Z,12.13
2023-04-21T00:36:44.478Z,14.82
2023-04-21T00:39:13.642Z,12.30
2023-04-21T00:41:42.489Z,16.10
2023-04-21T00:44:11.345Z,11.95
2023-04-21T00:46:39.678Z,14.52
2023-04-21T00:49:08.644Z,17.60
2023-04-21T00:51:37.597Z,18.35
2023-04-21T00:54:06.824Z,18.20
2023-04-21T00:56:36.804Z,18.67
2023-04-21T00:59:05.030Z,17.05
2023-04-21T01:01:36.707Z,17.30
2023-04-21T01:04:06.068Z,14.88
2023-04-21T01:06:34.948Z,13.10
2023-04-21T01:09:07.627Z,10.45
2023-04-21T01:11:38.893Z,11.90
2023-04-21T01:14:09.125Z,15.67
2023-04-21T01:16:38.687Z,13.25
2023-04-21T01:19:06.876Z,17.55
2023-04-21T01:21:41.846Z,14.07
2023-04-21T01:24:09.955Z,15.40
2023-04-21T01:26:38.346Z,13.48
2023-04-21T01:29:06.447Z,15.88
2023-04-21T01:31:34.509Z,18.27
2023-04-21T01:34:05.487Z,15.38
2023-04-21T01:36:34.005Z,17.90
2023-04-21T01:39:02.048Z,13.77
2023-04-21T01:41:31.337Z,15.00
2023-04-21T01:43:59.296Z,18.70
2023-04-21T01:46:27.361Z,17.17
2023-04-21T01:48:55.394Z,16.98
2023-04-21T01:51:23.478Z,16.98
2023-04-21T01:53:51.754Z,13.95
2023-04-21T01:56:19.885Z,14.55
2023-04-21T01:58:48.070Z,13.82
2023-04-21T02:01:16.645Z,13.90
2023-04-21T02:03:44.895Z,18.77
2023-04-21T02:06:14.357Z,17.25
2023-04-21T02:08:42.436Z,14.35
2023-04-21T02:11:10.414Z,17.50
2023-04-21T02:13:42.252Z,18.20
2023-04-21T02:16:13.844Z,17.40
2023-04-21T02:18:42.683Z,13.95
2023-04-21T02:21:10.610Z,17.17
2023-04-21T02:23:38.641Z,16.42
2023-04-21T02:26:06.954Z,16.20
2023-04-21T02:28:35.163Z,15.20
2023-04-21T02:31:03.583Z,15.40
2023-04-21T02:33:35.108Z,14.73
2023-04-21T02:36:03.892Z,17.25
2023-04-21T02:38:31.830Z,13.70
2023-04-21T02:40:59.893Z,15.43
2023-04-21T02:43:28.017Z,15.57
2023-04-21T02:45:56.902Z,14.77
2023-04-21T02:48:24.837Z,13.63
2023-04-21T02:50:53.670Z,13.55
2023-04-21T02:53:22.174Z,12.68
2023-04-21T02:55:50.496Z,16.52
2023-04-21T02:58:18.687Z,15.57
2023-04-21T03:00:46.744Z,14.73
2023-04-21T03:03:16.943Z,13.65
2023-04-21T03:05:45.196Z,13.68
2023-04-21T03:08:13.335Z,14.38
2023-04-21T03:10:41.569Z,13.55
2023-04-21T03:13:09.482Z,13.48
2023-04-21T03:15:40.359Z,14.68
2023-04-21T03:18:08.341Z,12.50
2023-04-21T03:20:36.510Z,13.35
2023-04-21T03:23:04.353Z,11.88
2023-04-21T03:25:32.521Z,15.88
2023-04-21T03:28:01.064Z,14.40
2023-04-21T03:30:29.101Z,12.23
2023-04-21T03:32:58.996Z,13.10
2023-04-21T03:35:27.425Z,14.27
2023-04-21T03:37:55.454Z,11.68
2023-04-21T03:40:23.595Z,17.30
2023-04-21T03:42:52.006Z,12.05
2023-04-21T03:45:22.822Z,12.15
2023-04-21T03:47:55.370Z,11.98
2023-04-21T03:50:23.700Z,13.52
2023-04-21T03:52:51.622Z,13.05
2023-04-21T03:55:19.617Z,14.88
2023-04-21T03:57:47.513Z,13.98
2023-04-21T04:00:16.219Z,11.73
2023-04-21T04:03:09.631Z,14.18
2023-04-21T04:05:38.601Z,12.10
2023-04-21T04:08:07.029Z,12.20
2023-04-21T04:10:35.207Z,13.20
2023-04-21T04:13:03.457Z,11.82
2023-04-21T04:15:31.445Z,14.32
2023-04-21T04:17:59.964Z,12.55
2023-04-21T04:20:28.081Z,10.05
2023-04-21T04:22:56.101Z,10.80
2023-04-21T04:25:24.021Z,12.98
2023-04-21T04:27:51.898Z,11.13
2023-04-21T04:30:19.767Z,10.52
2023-04-21T04:32:47.828Z,11.95
2023-04-21T04:35:16.869Z,14.82
2023-04-21T04:37:45.898Z,14.35
2023-04-21T04:40:14.544Z,11.23
2023-04-21T04:42:43.278Z,10.43
2023-04-21T04:45:11.722Z,14.63
2023-04-21T04:47:39.906Z,14.68
2023-04-21T04:50:08.312Z,12.10
2023-04-21T04:52:36.197Z,9.52
2023-04-21T04:55:04.533Z,10.40
2023-04-21T04:57:32.715Z,11.63
2023-04-21T05:00:01.116Z,12.00
2023-04-21T05:02:29.215Z,12.10
2023-04-21T05:04:57.335Z,10.38
2023-04-21T05:07:26.206Z,11.45
2023-04-21T05:09:54.830Z,12.02
2023-04-21T05:12:23.123Z,15.02
2023-04-21T05:14:51.508Z,11.48
2023-04-21T05:17:19.466Z,13.57
2023-04-21T05:19:47.456Z,13.43
2023-04-21T05:22:15.548Z,12.50
2023-04-21T05:24:44.341Z,10.27
2023-04-21T05:27:12.484Z,11.57
2023-04-21T05:29:41.111Z,9.65
2023-04-21T05:32:09.728Z,11.40
2023-04-21T05:34:37.790Z,11.15
2023-04-21T05:37:05.861Z,10.30
2023-04-21T05:39:36.722Z,12.20
2023-04-21T05:42:04.752Z,12.73
2023-04-21T05:44:32.904Z,14.38
2023-04-21T05:47:01.305Z,11.00
2023-04-21T05:49:29.587Z,13.70
2023-04-21T05:51:57.745Z,12.45
2023-04-21T05:54:25.868Z,13.50
2023-04-21T05:56:53.837Z,9.35
2023-04-21T05:59:22.104Z,15.32
2023-04-21T06:01:50.219Z,11.32
2023-04-21T06:04:18.578Z,10.63
2023-04-21T06:06:46.849Z,12.65
2023-04-21T06:09:16.028Z,10.60
2023-04-21T06:11:43.999Z,11.82
2023-04-21T06:14:12.221Z,9.23
2023-04-21T06:16:40.358Z,10.40
2023-04-21T06:19:08.716Z,9.43
2023-04-21T06:21:36.808Z,11.57
2023-04-21T06:24:04.874Z,8.82
2023-04-21T06:26:33.385Z,11.98
2023-04-21T06:29:01.325Z,10.18
2023-04-21T06:31:29.192Z,9.07
2023-04-21T06:33:57.370Z,9.35
2023-04-21T06:36:25.489Z,9.18
2023-04-21T06:38:53.457Z,10.82
2023-04-21T06:41:24.721Z,8.25
2023-04-21T06:43:52.936Z,10.02
2023-04-21T06:46:20.906Z,7.95
2023-04-21T06:48:49.112Z,12.60
2023-04-21T06:51:17.027Z,11.43
2023-04-21T06:53:45.073Z,6.30
2023-04-21T06:56:13.049Z,9.93
2023-04-21T06:58:41.048Z,12.25
2023-04-21T07:01:09.179Z,11.25
2023-04-21T07:03:37.186Z,10.48
2023-04-21T07:06:05.664Z,6.78
2023-04-21T07:08:33.607Z,8.25
2023-04-21T07:11:01.620Z,9.45
2023-04-21T07:13:29.962Z,11.63
2023-04-21T07:15:57.969Z,10.90
2023-04-21T07:18:25.994Z,15.20
2023-04-21T07:20:54.122Z,10.23
2023-04-21T07:23:22.073Z,10.30
2023-04-21T07:25:50.453Z,7.68
2023-04-21T07:28:18.682Z,9.85
2023-04-21T07:30:46.969Z,7.82
2023-04-21T07:33:15.258Z,12.15
2023-04-21T07:35:43.721Z,10.68
2023-04-21T07:38:11.913Z,7.85
2023-04-21T07:40:40.011Z,7.97
2023-04-21T07:43:08.037Z,12.95
2023-04-21T07:45:36.126Z,8.95
2023-04-21T07:48:06.460Z,5.68
2023-04-21T07:50:37.652Z,8.32
2023-04-21T07:53:06.010Z,11.43
2023-04-21T07:55:34.595Z,8.63
2023-04-21T07:58:02.854Z,11.70
2023-04-21T08:00:31.323Z,7.90
2023-04-21T08:03:00.147Z,8.13
2023-04-21T08:05:32.466Z,8.45
2023-04-21T08:08:03.389Z,9.52
2023-04-21T08:10:31.374Z,6.97
2023-04-21T08:12:59.940Z,10.10
2023-04-21T08:15:27.980Z,12.23
2023-04-21T08:17:56.304Z,14.45
2023-04-21T08:20:24.279Z,16.02
2023-04-21T08:22:52.568Z,10.07
2023-04-21T08:25:20.947Z,16.35
2023-04-21T08:27:49.077Z,8.20
2023-04-21T08:30:17.690Z,6.97
2023-04-21T08:32:45.713Z,10.75
2023-04-21T08:35:13.835Z,9.90
2023-04-21T08:37:42.451Z,8.45
2023-04-21T08:40:11.214Z,8.60
2023-04-21T08:42:42.268Z,9.13
2023-04-21T08:45:11.528Z,7.88
2023-04-21T08:47:41.381Z,11.48
2023-04-21T08:50:13.799Z,11.52
2023-04-21T08:52:42.326Z,8.52
2023-04-21T08:55:11.948Z,8.68
2023-04-21T08:57:40.225Z,10.68
2023-04-21T09:00:10.491Z,7.50
2023-04-21T09:03:01.291Z,8.48
2023-04-21T09:05:32.758Z,10.65
2023-04-21T09:08:12.596Z,14.82
2023-04-21T09:10:46.866Z,13.90
2023-04-21T09:13:15.848Z,7.03
2023-04-21T09:15:46.584Z,7.35
2023-04-21T09:18:16.566Z,9.40
2023-04-21T09:20:46.084Z,7.93
2023-04-21T09:23:14.414Z,7.03
2023-04-21T09:25:46.750Z,11.32
2023-04-21T09:28:15.870Z,7.95
2023-04-21T09:30:44.494Z,9.20
2023-04-21T09:33:29.089Z,7.35
2023-04-21T09:36:02.831Z,9.13
2023-04-21T09:38:31.010Z,8.85
2023-04-21T09:40:59.693Z,7.72
2023-04-21T09:43:28.683Z,8.57
2023-04-21T09:45:57.409Z,9.27
2023-04-21T09:48:27.665Z,6.95
2023-04-21T09:53:29.622Z,7.72
2023-04-21T09:56:00.152Z,7.45
2023-04-21T09:58:30.117Z,12.48
2023-04-21T10:00:58.935Z,11.02
2023-04-21T10:03:30.172Z,11.52
2023-04-21T10:05:58.515Z,8.52
2023-04-21T10:08:26.699Z,6.05
2023-04-21T10:10:55.055Z,7.60
2023-04-21T10:13:23.780Z,11.82
2023-04-21T10:16:03.312Z,6.47
2023-04-21T10:18:31.595Z,7.10
2023-04-21T10:21:10.383Z,7.20
2023-04-21T10:23:40.385Z,7.68
2023-04-21T10:26:10.718Z,6.93
2023-04-21T10:28:47.626Z,7.30
2023-04-21T10:31:27.806Z,8.63
2023-04-21T10:34:08.601Z,5.25
2023-04-21T10:36:56.809Z,7.07
2023-04-21T10:39:36.540Z,4.47
2023-04-21T10:42:13.853Z,5.38
2023-04-21T10:44:45.256Z,6.65
2023-04-21T10:47:13.338Z,6.15
2023-04-21T10:49:41.703Z,7.20
2023-04-21T10:52:12.731Z,7.53
2023-04-21T10:57:20.017Z,6.70
2023-04-21T10:59:49.990Z,6.07
2023-04-21T11:02:21.601Z,5.50
2023-04-21T11:04:56.623Z,6.13
2023-04-21T11:07:25.535Z,4.38
2023-04-21T11:10:06.891Z,11.75
2023-04-21T11:12:39.990Z,6.55
2023-04-21T11:15:13.589Z,4.45
2023-04-21T11:17:43.971Z,5.93
2023-04-21T11:20:11.960Z,6.60
2023-04-21T11:22:40.258Z,7.47
2023-04-21T11:25:18.945Z,5.43
2023-04-21T11:27:57.583Z,5.05
2023-04-21T11:30:35.429Z,6.38
2023-04-21T11:33:03.724Z,7.22
2023-04-21T11:35:32.722Z,6.25
2023-04-21T11:38:06.201Z,8.52
2023-04-21T11:40:49.325Z,4.70
2023-04-21T11:43:17.276Z,6.82
2023-04-21T11:45:49.008Z,5.05
2023-04-21T11:48:17.850Z,7.07
2023-04-21T11:50:50.458Z,5.43
2023-04-21T11:53:19.529Z,5.15
2023-04-21T11:55:47.647Z,5.53
2023-04-21T11:58:18.173Z,4.15
2023-04-21T12:00:46.967Z,7.97
2023-04-21T12:03:16.592Z,8.85
2023-04-21T12:05:44.773Z,5.28
2023-04-21T12:08:16.851Z,4.70
2023-04-21T12:10:49.123Z,5.93
2023-04-21T12:13:29.018Z,7.28
2023-04-21T12:16:03.157Z,6.03
2023-04-21T12:18:35.463Z,6.40
2023-04-21T12:21:04.807Z,7.53
2023-04-21T12:23:32.848Z,5.85
2023-04-21T12:26:01.645Z,4.63
2023-04-21T12:28:31.497Z,7.93
2023-04-21T12:31:00.476Z,4.88
2023-04-21T12:33:28.891Z,5.88
2023-04-21T12:35:57.545Z,6.20
2023-04-21T12:38:26.648Z,5.68
2023-04-21T12:40:54.647Z,4.95
2023-04-21T12:43:22.685Z,7.03
2023-04-21T12:45:52.957Z,4.07
2023-04-21T12:48:21.315Z,4.80
2023-04-21T12:50:49.356Z,5.32
2023-04-21T12:53:17.200Z,6.00
2023-04-21T12:55:56.833Z,4.55
2023-04-21T12:58:31.955Z,4.57
2023-04-21T13:01:00.327Z,4.93
2023-04-21T13:03:28.982Z,5.13
2023-04-21T13:05:58.125Z,3.97
2023-04-21T13:08:26.706Z,5.13
2023-04-21T13:10:55.407Z,6.13
2023-04-21T13:13:23.468Z,4.00
2023-04-21T13:15:51.712Z,7.20
2023-04-21T13:18:19.803Z,4.28
2023-04-21T13:20:47.792Z,5.15
2023-04-21T13:23:16.349Z,5.53
2023-04-21T13:25:45.973Z,3.80
2023-04-21T13:28:17.835Z,6.88
2023-04-21T13:30:46.167Z,5.20
2023-04-21T13:33:14.420Z,4.85
2023-04-21T13:35:42.546Z,4.85
2023-04-21T13:38:10.832Z,5.70
2023-04-21T13:40:39.252Z,4.70
2023-04-21T13:43:07.527Z,4.35
2023-04-21T13:45:35.970Z,3.75
2023-04-21T13:48:04.286Z,5.18
2023-04-21T13:50:32.899Z,6.25
2023-04-21T13:53:01.540Z,6.78
2023-04-21T13:55:30.213Z,6.15
2023-04-21T13:58:01.940Z,4.40
2023-04-21T14:00:30.299Z,5.10
2023-04-21T14:02:59.396Z,5.38
2023-04-21T14:05:27.616Z,4.82
2023-04-21T14:07:56.205Z,4.05
2023-04-21T14:10:24.964Z,4.07
2023-04-21T14:12:52.820Z,5.13
2023-04-21T14:15:21.172Z,4.93
2023-04-21T14:17:49.543Z,5.03
2023-04-21T14:20:17.672Z,5.15
2023-04-21T14:22:45.702Z,4.82
2023-04-21T14:25:13.744Z,6.38
2023-04-21T14:27:41.906Z,4.50
2023-04-21T14:30:10.984Z,3.92
2023-04-21T14:32:44.793Z,6.13
2023-04-21T14:35:14.638Z,3.05
2023-04-21T14:37:42.939Z,5.10
2023-04-21T14:40:11.125Z,3.88
2023-04-21T14:42:39.270Z,4.90
2023-04-21T14:45:08.116Z,3.55
2023-04-21T14:47:37.197Z,6.95
2023-04-21T14:50:06.842Z,4.75
2023-04-21T14:52:36.307Z,5.20
2023-04-21T14:55:04.895Z,6.40
2023-04-21T14:57:33.650Z,8.38
2023-04-21T15:00:02.570Z,10.57
2023-04-21T15:02:32.034Z,5.82
2023-04-21T15:05:02.091Z,5.15
2023-04-21T15:07:30.474Z,7.20
2023-04-21T15:09:59.313Z,3.05
2023-04-21T15:12:27.770Z,5.05
2023-04-21T15:14:56.130Z,10.00
2023-04-21T15:17:24.272Z,5.72
2023-04-21T15:19:52.586Z,5.53
2023-04-21T15:22:20.542Z,8.63
2023-04-21T15:24:48.929Z,5.28
2023-04-21T15:27:17.645Z,4.00
2023-04-21T15:29:45.624Z,4.30
2023-04-21T15:32:15.109Z,3.85
2023-04-21T15:34:43.119Z,4.22
2023-04-21T15:37:11.385Z,5.18
2023-04-21T15:39:39.697Z,5.00
2023-04-21T15:42:08.688Z,5.25
2023-04-21T15:44:39.367Z,4.65
2023-04-21T15:47:07.418Z,3.38
2023-04-21T15:49:35.811Z,5.57
2023-04-21T15:52:05.404Z,3.65
2023-04-21T15:54:35.238Z,5.85
2023-04-21T15:57:03.863Z,4.67
2023-04-21T15:59:31.911Z,5.82
2023-04-21T16:02:00.035Z,5.22
2023-04-21T16:04:28.800Z,6.65
2023-04-21T16:06:56.976Z,4.35
2023-04-21T16:09:24.956Z,4.30
2023-04-21T16:11:52.953Z,4.63
2023-04-21T16:14:21.110Z,4.25
2023-04-21T16:16:49.124Z,5.57
2023-04-21T16:19:17.724Z,4.05
2023-04-21T16:21:45.832Z,3.42
2023-04-21T16:24:14.062Z,6.95
2023-04-21T16:26:42.282Z,5.57
2023-04-21T16:29:10.569Z,4.30
2023-04-21T16:31:38.819Z,5.75
2023-04-21T16:34:07.296Z,6.28
2023-04-21T16:36:35.653Z,3.33
2023-04-21T16:39:03.701Z,6.53
2023-04-21T16:41:31.944Z,4.47
2023-04-21T16:44:00.265Z,3.75
2023-04-21T16:46:28.746Z,5.57
2023-04-21T16:48:56.679Z,2.97
2023-04-21T16:51:26.602Z,15.40
2023-04-21T16:53:56.788Z,5.03
2023-04-21T16:56:25.143Z,4.00
2023-04-21T16:58:54.201Z,3.38
2023-04-21T17:01:22.215Z,2.60
2023-04-21T17:03:50.570Z,9.75
2023-04-21T17:06:21.457Z,4.25
2023-04-21T17:08:49.887Z,3.78
2023-04-21T17:11:17.919Z,5.57
2023-04-21T17:13:45.780Z,3.50
2023-04-21T17:16:13.630Z,5.05
2023-04-21T17:18:41.717Z,3.38
2023-04-21T17:21:09.575Z,4.50
2023-04-21T17:23:37.564Z,4.00
2023-04-21T17:26:06.700Z,4.07
2023-04-21T17:28:34.852Z,3.75
2023-04-21T17:31:14.531Z,4.78
2023-04-21T17:33:44.964Z,4.40
2023-04-21T17:36:13.464Z,3.17
2023-04-21T17:38:43.084Z,5.57
2023-04-21T17:41:13.879Z,5.55
2023-04-21T17:43:42.159Z,4.82
2023-04-21T17:46:10.320Z,4.28
2023-04-21T17:48:38.657Z,3.67
2023-04-21T17:51:06.775Z,3.95
2023-04-21T17:53:34.720Z,4.82
2023-04-21T17:56:02.956Z,2.60
2023-04-21T17:58:31.250Z,3.47
2023-04-21T18:00:59.795Z,4.18
2023-04-21T18:03:28.089Z,4.25
2023-04-21T18:05:56.838Z,3.25
2023-04-21T18:08:24.864Z,5.00
2023-04-21T18:10:54.653Z,5.05
2023-04-21T18:13:22.760Z,4.35
2023-04-21T18:15:51.132Z,5.40
2023-04-21T18:18:19.136Z,3.80
2023-04-21T18:20:47.076Z,5.32
2023-04-21T18:23:15.200Z,4.68
2023-04-21T18:25:43.395Z,7.57
2023-04-21T18:28:13.195Z,4.18
2023-04-21T18:30:41.708Z,3.97
2023-04-21T18:33:11.823Z,4.50
2023-04-21T18:35:41.448Z,5.03
2023-04-21T18:38:11.963Z,4.88
2023-04-21T18:40:41.191Z,5.65
2023-04-21T18:43:11.030Z,4.20
2023-04-21T18:45:39.553Z,5.15
2023-04-21T18:48:07.915Z,7.70
2023-04-21T18:50:40.530Z,5.25
2023-04-21T18:53:09.565Z,5.32
2023-04-21T18:55:38.089Z,4.32
2023-04-21T18:58:06.374Z,4.50
2023-04-21T19:00:38.044Z,5.47
2023-04-21T19:03:07.115Z,5.13
2023-04-21T19:05:37.036Z,6.40
2023-04-21T19:08:05.640Z,5.57
2023-04-21T19:10:38.186Z,6.45
2023-04-21T19:13:06.370Z,4.65
2023-04-21T19:15:35.261Z,6.07
2023-04-21T19:18:03.179Z,5.32
2023-04-21T19:20:32.707Z,8.88
2023-04-21T19:23:00.831Z,7.10
2023-04-21T19:25:29.260Z,5.65
2023-04-21T19:27:57.766Z,5.95
2023-04-21T19:30:25.905Z,6.32
2023-04-21T19:32:54.427Z,5.45
2023-04-21T19:35:22.681Z,4.97
2023-04-21T19:37:50.985Z,6.63
2023-04-21T19:40:19.790Z,6.63
2023-04-21T19:42:47.903Z,6.40
2023-04-21T19:45:15.882Z,6.10
2023-04-21T19:47:44.012Z,6.60
2023-04-21T19:50:13.019Z,5.22
2023-04-21T19:52:41.416Z,7.50
2023-04-21T19:55:09.711Z,5.70
2023-04-21T19:57:37.853Z,6.55
2023-04-21T20:00:09.612Z,7.00
2023-04-21T20:02:40.258Z,6.07
2023-04-21T20:05:09.743Z,5.03
2023-04-21T20:07:38.086Z,5.28
2023-04-21T20:10:07.560Z,5.55
2023-04-21T20:12:35.774Z,8.13
2023-04-21T20:15:04.013Z,9.88
2023-04-21T20:17:32.632Z,6.00
2023-04-21T20:20:01.606Z,5.28
2023-04-21T20:22:29.468Z,5.05
2023-04-21T20:25:00.418Z,6.00
2023-04-21T20:27:28.349Z,6.53
2023-04-21T20:29:56.498Z,5.78
2023-04-21T20:32:24.437Z,5.00
2023-04-21T20:34:53.675Z,5.65
2023-04-21T20:37:23.390Z,6.15
2023-04-21T20:39:51.702Z,7.88
2023-04-21T20:42:21.977Z,7.45
2023-04-21T20:44:50.228Z,6.45
2023-04-21T20:47:18.264Z,6.38
2023-04-21T20:49:47.676Z,7.22
2023-04-21T20:52:16.417Z,6.65
2023-04-21T20:54:44.511Z,5.30
2023-04-21T20:57:15.036Z,7.20
2023-04-21T20:59:43.048Z,6.50
2023-04-21T21:02:11.185Z,5.40
2023-04-21T21:04:39.298Z,5.55
2023-04-21T21:07:07.248Z,5.43
2023-04-21T21:09:35.241Z,6.07
2023-04-21T21:12:04.545Z,6.13
2023-04-21T21:14:32.493Z,5.60
2023-04-21T21:17:01.585Z,7.30
2023-04-21T21:19:29.776Z,7.70
2023-04-21T21:21:57.621Z,8.13
2023-04-21T21:24:26.652Z,7.47
2023-04-21T21:26:54.659Z,6.25
2023-04-21T21:29:22.902Z,6.85
2023-04-21T21:31:51.022Z,8.32
2023-04-21T21:34:19.298Z,7.03
2023-04-21T21:36:47.412Z,7.97
2023-04-21T21:39:15.753Z,10.43
2023-04-21T21:41:43.687Z,11.23
2023-04-21T21:44:11.773Z,9.43
2023-04-21T21:46:43.512Z,7.72
2023-04-21T21:49:12.219Z,9.48
2023-04-21T21:51:41.166Z,11.20
2023-04-21T21:54:09.309Z,9.77
2023-04-21T21:56:37.266Z,7.43
2023-04-21T21:59:05.345Z,6.78
2023-04-21T22:01:35.722Z,8.70
2023-04-21T22:04:04.056Z,6.93
2023-04-21T22:06:34.510Z,11.38
2023-04-21T22:09:02.671Z,7.50
2023-04-21T22:11:31.236Z,8.32
2023-04-21T22:14:07.933Z,6.00
2023-04-21T22:16:43.175Z,9.15
2023-04-21T22:19:12.830Z,8.35
2023-04-21T22:21:41.273Z,7.15
2023-04-21T22:24:09.337Z,7.13
2023-04-21T22:26:37.399Z,7.35
2023-04-21T22:29:05.720Z,8.07
2023-04-21T22:31:33.820Z,7.93
2023-04-21T22:34:02.143Z,8.95
2023-04-21T22:36:31.632Z,9.70
2023-04-21T22:39:00.076Z,7.45
2023-04-21T22:41:28.556Z,8.32
2023-04-21T22:43:56.531Z,9.20
2023-04-21T22:46:24.524Z,9.93
2023-04-21T22:48:54.466Z,8.43
2023-04-21T22:51:23.539Z,8.48
2023-04-21T22:53:51.997Z,10.25
2023-04-21T22:56:23.354Z,7.22
2023-04-21T22:58:51.543Z,7.97
2023-04-21T23:01:22.888Z,12.88
2023-04-21T23:03:51.195Z,8.35
2023-04-21T23:06:19.514Z,10.32
2023-04-21T23:08:47.770Z,11.55
2023-04-21T23:11:15.660Z,11.55
2023-04-21T23:13:43.734Z,9.85
2023-04-21T23:16:11.819Z,8.32
2023-04-21T23:18:39.843Z,9.15
2023-04-21T23:21:08.066Z,9.27
2023-04-21T23:23:36.340Z,8.60
2023-04-21T23:26:04.467Z,9.55
2023-04-21T23:28:35.047Z,10.73
2023-04-21T23:31:03.041Z,10.80
2023-04-21T23:33:33.671Z,13.32
2023-04-21T23:36:01.583Z,10.98
2023-04-21T23:38:29.722Z,14.05
2023-04-21T23:40:57.768Z,9.77
2023-04-21T23:43:26.015Z,11.18
2023-04-21T23:45:54.125Z,8.48
2023-04-21T23:48:22.592Z,11.00
2023-04-21T23:50:50.843Z,10.57
2023-04-21T23:53:18.988Z,12.32
2023-04-21T23:55:47.074Z,9.38
2023-04-21T23:58:15.095Z,11.98
